sensor_id;sensor_type;location;lat;lon;timestamp;P1;durP1;ratioP1;P2;durP2;ratioP2
74269;SDS011;62754;48.252;11.654;2022-11-15T00:01:44;8.93;;;4.80;;
74269;SDS011;62754;48.252;11.654;2022-11-15T00:04:10;8.13;;;4.82;;
74269;SDS011;62754;48.252;11.654;2022-11-15T00:06:35;8.75;;;4.10;;
74269;SDS011;62754;48.252;11.654;2022-11-15T00:09:01;8.32;;;4.35;;
74269;SDS011;62754;48.252;11.654;2022-11-15T00:11:27;9.00;;;4.43;;
74269;SDS011;62754;48.252;11.654;2022-11-15T00:13:56;6.90;;;4.45;;
74269;SDS011;62754;48.252;11.654;2022-11-15T00:16:23;6.30;;;4.20;;
74269;SDS011;62754;48.252;11.654;2022-11-15T00:18:49;6.43;;;4.18;;
74269;SDS011;62754;48.252;11.654;2022-11-15T00:21:16;6.75;;;4.20;;
74269;SDS011;62754;48.252;11.654;2022-11-15T00:23:42;7.03;;;4.15;;
74269;SDS011;62754;48.252;11.654;2022-11-15T00:26:11;7.38;;;3.97;;
74269;SDS011;62754;48.252;11.654;2022-11-15T00:28:38;6.82;;;4.03;;
74269;SDS011;62754;48.252;11.654;2022-11-15T00:31:05;8.10;;;5.00;;
74269;SDS011;62754;48.252;11.654;2022-11-15T00:33:34;8.63;;;4.22;;
74269;SDS011;62754;48.252;11.654;2022-11-15T00:36:09;6.95;;;3.85;;
74269;SDS011;62754;48.252;11.654;2022-11-15T00:38:35;6.82;;;4.07;;
74269;SDS011;62754;48.252;11.654;2022-11-15T00:41:03;5.72;;;3.60;;
74269;SDS011;62754;48.252;11.654;2022-11-15T00:43:30;7.28;;;3.95;;
74269;SDS011;62754;48.252;11.654;2022-11-15T00:45:56;9.52;;;4.20;;
74269;SDS011;62754;48.252;11.654;2022-11-15T00:48:22;7.97;;;4.03;;
74269;SDS011;62754;48.252;11.654;2022-11-15T00:50:49;5.85;;;3.80;;
74269;SDS011;62754;48.252;11.654;2022-11-15T00:53:15;7.90;;;4.65;;
74269;SDS011;62754;48.252;11.654;2022-11-15T00:55:41;6.80;;;4.35;;
74269;SDS011;62754;48.252;11.654;2022-11-15T00:58:07;6.25;;;4.13;;
74269;SDS011;62754;48.252;11.654;2022-11-15T01:00:33;7.43;;;4.68;;
74269;SDS011;62754;48.252;11.654;2022-11-15T01:03:00;6.82;;;4.43;;
74269;SDS011;62754;48.252;11.654;2022-11-15T01:05:26;7.53;;;4.40;;
74269;SDS011;62754;48.252;11.654;2022-11-15T01:07:53;8.00;;;4.85;;
74269;SDS011;62754;48.252;11.654;2022-11-15T01:10:21;7.10;;;4.80;;
74269;SDS011;62754;48.252;11.654;2022-11-15T01:12:48;8.25;;;4.72;;
74269;SDS011;62754;48.252;11.654;2022-11-15T01:15:14;7.57;;;4.85;;
74269;SDS011;62754;48.252;11.654;2022-11-15T01:17:39;8.35;;;4.68;;
74269;SDS011;62754;48.252;11.654;2022-11-15T01:20:05;7.15;;;4.85;;
74269;SDS011;62754;48.252;11.654;2022-11-15T01:22:32;8.10;;;4.88;;
74269;SDS011;62754;48.252;11.654;2022-11-15T01:24:58;8.00;;;4.78;;
74269;SDS011;62754;48.252;11.654;2022-11-15T01:27:24;7.70;;;4.97;;
74269;SDS011;62754;48.252;11.654;2022-11-15T01:29:50;9.65;;;4.88;;
74269;SDS011;62754;48.252;11.654;2022-11-15T01:32:15;8.15;;;4.70;;
74269;SDS011;62754;48.252;11.654;2022-11-15T01:34:41;8.45;;;4.97;;
74269;SDS011;62754;48.252;11.654;2022-11-15T01:37:07;7.88;;;4.63;;
74269;SDS011;62754;48.252;11.654;2022-11-15T01:39:33;8.25;;;4.57;;
74269;SDS011;62754;48.252;11.654;2022-11-15T01:41:59;7.72;;;4.85;;
74269;SDS011;62754;48.252;11.654;2022-11-15T01:44:36;7.80;;;4.75;;
74269;SDS011;62754;48.252;11.654;2022-11-15T01:50:00;8.68;;;4.85;;
74269;SDS011;62754;48.252;11.654;2022-11-15T01:52:30;7.70;;;5.20;;
74269;SDS011;62754;48.252;11.654;2022-11-15T01:55:01;7.82;;;4.30;;
74269;SDS011;62754;48.252;11.654;2022-11-15T01:57:37;7.03;;;4.68;;
74269;SDS011;62754;48.252;11.654;2022-11-15T02:00:05;8.38;;;5.20;;
74269;SDS011;62754;48.252;11.654;2022-11-15T02:02:32;7.95;;;5.32;;
74269;SDS011;62754;48.252;11.654;2022-11-15T02:04:59;7.53;;;5.20;;
74269;SDS011;62754;48.252;11.654;2022-11-15T02:07:25;7.47;;;4.95;;
74269;SDS011;62754;48.252;11.654;2022-11-15T02:09:51;8.43;;;5.20;;
74269;SDS011;62754;48.252;11.654;2022-11-15T02:12:19;8.75;;;4.90;;
74269;SDS011;62754;48.252;11.654;2022-11-15T02:14:51;6.72;;;4.47;;
74269;SDS011;62754;48.252;11.654;2022-11-15T02:17:23;8.05;;;4.85;;
74269;SDS011;62754;48.252;11.654;2022-11-15T02:31:14;7.13;;;4.93;;
74269;SDS011;62754;48.252;11.654;2022-11-15T02:39:26;8.45;;;5.25;;
74269;SDS011;62754;48.252;11.654;2022-11-15T02:42:00;10.07;;;5.78;;
74269;SDS011;62754;48.252;11.654;2022-11-15T02:44:33;8.68;;;5.85;;
74269;SDS011;62754;48.252;11.654;2022-11-15T02:47:05;9.68;;;5.55;;
74269;SDS011;62754;48.252;11.654;2022-11-15T02:49:37;9.23;;;5.82;;
74269;SDS011;62754;48.252;11.654;2022-11-15T02:54:30;9.10;;;5.32;;
74269;SDS011;62754;48.252;11.654;2022-11-15T02:57:12;8.27;;;5.55;;
74269;SDS011;62754;48.252;11.654;2022-11-15T03:10:20;9.32;;;5.47;;
74269;SDS011;62754;48.252;11.654;2022-11-15T03:12:55;8.45;;;5.90;;
74269;SDS011;62754;48.252;11.654;2022-11-15T03:15:29;8.38;;;5.20;;
74269;SDS011;62754;48.252;11.654;2022-11-15T03:18:04;7.65;;;4.47;;
74269;SDS011;62754;48.252;11.654;2022-11-15T03:20:45;9.73;;;4.95;;
74269;SDS011;62754;48.252;11.654;2022-11-15T03:23:12;7.90;;;4.60;;
74269;SDS011;62754;48.252;11.654;2022-11-15T03:25:42;7.32;;;4.75;;
74269;SDS011;62754;48.252;11.654;2022-11-15T03:28:13;7.53;;;4.63;;
74269;SDS011;62754;48.252;11.654;2022-11-15T03:30:47;7.45;;;4.85;;
74269;SDS011;62754;48.252;11.654;2022-11-15T03:33:17;8.13;;;5.20;;
74269;SDS011;62754;48.252;11.654;2022-11-15T03:35:45;9.32;;;4.85;;
74269;SDS011;62754;48.252;11.654;2022-11-15T03:40:55;6.95;;;4.22;;
74269;SDS011;62754;48.252;11.654;2022-11-15T03:46:11;8.15;;;4.35;;
74269;SDS011;62754;48.252;11.654;2022-11-15T03:48:42;8.57;;;4.75;;
74269;SDS011;62754;48.252;11.654;2022-11-15T03:51:14;6.82;;;4.10;;
74269;SDS011;62754;48.252;11.654;2022-11-15T03:53:40;6.40;;;3.85;;
74269;SDS011;62754;48.252;11.654;2022-11-15T03:56:06;6.53;;;3.85;;
74269;SDS011;62754;48.252;11.654;2022-11-15T03:58:32;6.57;;;3.92;;
74269;SDS011;62754;48.252;11.654;2022-11-15T04:00:58;5.93;;;3.60;;
74269;SDS011;62754;48.252;11.654;2022-11-15T04:03:24;6.55;;;3.85;;
74269;SDS011;62754;48.252;11.654;2022-11-15T04:05:49;6.15;;;3.88;;
74269;SDS011;62754;48.252;11.654;2022-11-15T04:08:15;5.57;;;3.22;;
74269;SDS011;62754;48.252;11.654;2022-11-15T04:10:41;5.85;;;3.33;;
74269;SDS011;62754;48.252;11.654;2022-11-15T04:13:07;6.07;;;3.53;;
74269;SDS011;62754;48.252;11.654;2022-11-15T04:15:32;4.53;;;3.03;;
74269;SDS011;62754;48.252;11.654;2022-11-15T04:17:58;5.30;;;2.83;;
74269;SDS011;62754;48.252;11.654;2022-11-15T04:20:25;4.40;;;2.75;;
74269;SDS011;62754;48.252;11.654;2022-11-15T04:22:53;5.75;;;2.83;;
74269;SDS011;62754;48.252;11.654;2022-11-15T04:25:20;6.65;;;3.53;;
74269;SDS011;62754;48.252;11.654;2022-11-15T04:27:46;5.22;;;2.90;;
74269;SDS011;62754;48.252;11.654;2022-11-15T04:30:11;5.40;;;3.00;;
74269;SDS011;62754;48.252;11.654;2022-11-15T04:32:37;9.90;;;5.05;;
74269;SDS011;62754;48.252;11.654;2022-11-15T04:35:03;8.82;;;4.20;;
74269;SDS011;62754;48.252;11.654;2022-11-15T04:37:29;7.03;;;3.97;;
74269;SDS011;62754;48.252;11.654;2022-11-15T04:39:55;6.57;;;3.60;;
74269;SDS011;62754;48.252;11.654;2022-11-15T04:42:20;6.43;;;3.55;;
74269;SDS011;62754;48.252;11.654;2022-11-15T04:44:46;6.03;;;3.25;;
74269;SDS011;62754;48.252;11.654;2022-11-15T04:47:12;5.85;;;3.40;;
74269;SDS011;62754;48.252;11.654;2022-11-15T04:49:38;5.40;;;3.28;;
74269;SDS011;62754;48.252;11.654;2022-11-15T04:52:03;6.35;;;3.58;;
74269;SDS011;62754;48.252;11.654;2022-11-15T04:54:29;6.78;;;3.47;;
74269;SDS011;62754;48.252;11.654;2022-11-15T04:56:55;6.28;;;3.25;;
74269;SDS011;62754;48.252;11.654;2022-11-15T04:59:21;4.93;;;3.10;;
74269;SDS011;62754;48.252;11.654;2022-11-15T05:01:46;5.28;;;2.85;;
74269;SDS011;62754;48.252;11.654;2022-11-15T05:04:12;5.85;;;3.33;;
74269;SDS011;62754;48.252;11.654;2022-11-15T05:06:38;6.97;;;3.28;;
74269;SDS011;62754;48.252;11.654;2022-11-15T05:09:04;6.05;;;3.30;;
74269;SDS011;62754;48.252;11.654;2022-11-15T05:11:30;6.65;;;3.35;;
74269;SDS011;62754;48.252;11.654;2022-11-15T05:13:55;6.78;;;3.20;;
74269;SDS011;62754;48.252;11.654;2022-11-15T05:16:21;5.35;;;3.28;;
74269;SDS011;62754;48.252;11.654;2022-11-15T05:18:50;5.80;;;3.08;;
74269;SDS011;62754;48.252;11.654;2022-11-15T05:21:17;7.85;;;3.50;;
74269;SDS011;62754;48.252;11.654;2022-11-15T05:23:42;4.90;;;2.80;;
74269;SDS011;62754;48.252;11.654;2022-11-15T05:26:08;5.53;;;3.33;;
74269;SDS011;62754;48.252;11.654;2022-11-15T05:28:35;5.50;;;3.30;;
74269;SDS011;62754;48.252;11.654;2022-11-15T05:31:02;5.80;;;3.53;;
74269;SDS011;62754;48.252;11.654;2022-11-15T05:33:32;5.53;;;3.55;;
74269;SDS011;62754;48.252;11.654;2022-11-15T05:36:04;7.45;;;3.30;;
74269;SDS011;62754;48.252;11.654;2022-11-15T05:38:34;4.95;;;3.13;;
74269;SDS011;62754;48.252;11.654;2022-11-15T05:41:00;5.80;;;3.45;;
74269;SDS011;62754;48.252;11.654;2022-11-15T05:45:54;6.43;;;3.78;;
74269;SDS011;62754;48.252;11.654;2022-11-15T05:48:20;5.05;;;3.10;;
74269;SDS011;62754;48.252;11.654;2022-11-15T05:50:46;8.70;;;3.38;;
74269;SDS011;62754;48.252;11.654;2022-11-15T05:53:14;7.25;;;3.83;;
74269;SDS011;62754;48.252;11.654;2022-11-15T05:55:44;10.40;;;5.95;;
74269;SDS011;62754;48.252;11.654;2022-11-15T05:58:10;7.13;;;4.68;;
74269;SDS011;62754;48.252;11.654;2022-11-15T06:00:36;6.25;;;3.65;;
74269;SDS011;62754;48.252;11.654;2022-11-15T06:03:01;7.30;;;4.05;;
74269;SDS011;62754;48.252;11.654;2022-11-15T06:05:27;7.95;;;4.57;;
74269;SDS011;62754;48.252;11.654;2022-11-15T06:07:56;8.48;;;5.53;;
74269;SDS011;62754;48.252;11.654;2022-11-15T06:10:23;8.57;;;5.07;;
74269;SDS011;62754;48.252;11.654;2022-11-15T06:12:55;11.68;;;5.63;;
74269;SDS011;62754;48.252;11.654;2022-11-15T06:15:22;9.40;;;5.50;;
74269;SDS011;62754;48.252;11.654;2022-11-15T06:17:47;9.70;;;5.43;;
74269;SDS011;62754;48.252;11.654;2022-11-15T06:20:13;9.73;;;4.80;;
74269;SDS011;62754;48.252;11.654;2022-11-15T06:22:39;11.60;;;6.20;;
74269;SDS011;62754;48.252;11.654;2022-11-15T06:25:05;9.70;;;5.70;;
74269;SDS011;62754;48.252;11.654;2022-11-15T06:27:31;10.82;;;4.93;;
74269;SDS011;62754;48.252;11.654;2022-11-15T06:29:57;8.05;;;4.70;;
74269;SDS011;62754;48.252;11.654;2022-11-15T06:32:22;10.10;;;4.82;;
74269;SDS011;62754;48.252;11.654;2022-11-15T06:34:48;16.33;;;8.80;;
74269;SDS011;62754;48.252;11.654;2022-11-15T06:37:14;11.07;;;6.65;;
74269;SDS011;62754;48.252;11.654;2022-11-15T06:39:40;8.35;;;5.00;;
74269;SDS011;62754;48.252;11.654;2022-11-15T06:42:05;7.95;;;4.63;;
74269;SDS011;62754;48.252;11.654;2022-11-15T06:44:34;7.07;;;4.20;;
74269;SDS011;62754;48.252;11.654;2022-11-15T06:46:59;6.13;;;4.13;;
74269;SDS011;62754;48.252;11.654;2022-11-15T06:49:25;5.95;;;3.72;;
74269;SDS011;62754;48.252;11.654;2022-11-15T06:51:51;7.85;;;4.50;;
74269;SDS011;62754;48.252;11.654;2022-11-15T06:54:17;7.93;;;4.35;;
74269;SDS011;62754;48.252;11.654;2022-11-15T06:56:42;6.03;;;4.45;;
74269;SDS011;62754;48.252;11.654;2022-11-15T06:59:08;7.10;;;4.03;;
74269;SDS011;62754;48.252;11.654;2022-11-15T07:01:34;7.63;;;4.05;;
74269;SDS011;62754;48.252;11.654;2022-11-15T07:04:00;9.77;;;7.00;;
74269;SDS011;62754;48.252;11.654;2022-11-15T07:06:25;14.73;;;11.70;;
74269;SDS011;62754;48.252;11.654;2022-11-15T07:08:51;19.38;;;14.60;;
74269;SDS011;62754;48.252;11.654;2022-11-15T07:11:17;10.35;;;7.43;;
74269;SDS011;62754;48.252;11.654;2022-11-15T07:13:43;9.98;;;5.57;;
74269;SDS011;62754;48.252;11.654;2022-11-15T07:16:09;6.78;;;4.72;;
74269;SDS011;62754;48.252;11.654;2022-11-15T07:18:36;9.15;;;6.40;;
74269;SDS011;62754;48.252;11.654;2022-11-15T07:23:29;13.40;;;7.35;;
74269;SDS011;62754;48.252;11.654;2022-11-15T07:25:56;14.73;;;8.45;;
74269;SDS011;62754;48.252;11.654;2022-11-15T07:28:22;11.02;;;5.75;;
74269;SDS011;62754;48.252;11.654;2022-11-15T07:30:48;8.23;;;6.45;;
74269;SDS011;62754;48.252;11.654;2022-11-15T07:33:14;10.98;;;6.65;;
74269;SDS011;62754;48.252;11.654;2022-11-15T07:35:39;8.57;;;5.43;;
74269;SDS011;62754;48.252;11.654;2022-11-15T07:38:05;7.43;;;4.43;;
74269;SDS011;62754;48.252;11.654;2022-11-15T07:40:31;7.47;;;4.30;;
74269;SDS011;62754;48.252;11.654;2022-11-15T07:43:00;7.10;;;4.05;;
74269;SDS011;62754;48.252;11.654;2022-11-15T07:45:30;6.15;;;3.67;;
74269;SDS011;62754;48.252;11.654;2022-11-15T07:47:57;5.40;;;3.15;;
74269;SDS011;62754;48.252;11.654;2022-11-15T07:50:23;5.82;;;3.83;;
74269;SDS011;62754;48.252;11.654;2022-11-15T07:52:55;5.53;;;3.20;;
74269;SDS011;62754;48.252;11.654;2022-11-15T07:57:49;10.77;;;6.85;;
74269;SDS011;62754;48.252;11.654;2022-11-15T08:00:14;8.50;;;5.97;;
74269;SDS011;62754;48.252;11.654;2022-11-15T08:02:40;6.32;;;4.00;;
74269;SDS011;62754;48.252;11.654;2022-11-15T08:05:06;6.97;;;3.45;;
74269;SDS011;62754;48.252;11.654;2022-11-15T08:07:32;9.80;;;6.50;;
74269;SDS011;62754;48.252;11.654;2022-11-15T08:09:58;9.20;;;6.50;;
74269;SDS011;62754;48.252;11.654;2022-11-15T08:12:24;14.60;;;9.27;;
74269;SDS011;62754;48.252;11.654;2022-11-15T08:14:50;9.45;;;6.68;;
74269;SDS011;62754;48.252;11.654;2022-11-15T08:17:16;7.97;;;4.32;;
74269;SDS011;62754;48.252;11.654;2022-11-15T08:19:41;8.02;;;5.30;;
74269;SDS011;62754;48.252;11.654;2022-11-15T08:22:07;5.80;;;4.40;;
74269;SDS011;62754;48.252;11.654;2022-11-15T08:24:33;7.07;;;4.28;;
74269;SDS011;62754;48.252;11.654;2022-11-15T08:26:59;8.98;;;4.95;;
74269;SDS011;62754;48.252;11.654;2022-11-15T08:29:25;7.15;;;4.00;;
74269;SDS011;62754;48.252;11.654;2022-11-15T08:31:50;5.55;;;3.53;;
74269;SDS011;62754;48.252;11.654;2022-11-15T08:34:16;7.65;;;4.75;;
74269;SDS011;62754;48.252;11.654;2022-11-15T08:36:42;5.43;;;3.55;;
74269;SDS011;62754;48.252;11.654;2022-11-15T08:39:10;7.55;;;3.30;;
74269;SDS011;62754;48.252;11.654;2022-11-15T08:41:36;4.65;;;3.13;;
74269;SDS011;62754;48.252;11.654;2022-11-15T08:44:03;4.68;;;2.70;;
74269;SDS011;62754;48.252;11.654;2022-11-15T08:46:29;5.40;;;2.85;;
74269;SDS011;62754;48.252;11.654;2022-11-15T08:48:54;8.02;;;3.65;;
74269;SDS011;62754;48.252;11.654;2022-11-15T08:51:20;4.88;;;2.53;;
74269;SDS011;62754;48.252;11.654;2022-11-15T08:53:46;6.18;;;3.20;;
74269;SDS011;62754;48.252;11.654;2022-11-15T08:56:12;5.18;;;3.58;;
74269;SDS011;62754;48.252;11.654;2022-11-15T08:58:39;4.97;;;3.95;;
74269;SDS011;62754;48.252;11.654;2022-11-15T09:01:06;4.80;;;3.35;;
74269;SDS011;62754;48.252;11.654;2022-11-15T09:03:40;5.57;;;2.45;;
74269;SDS011;62754;48.252;11.654;2022-11-15T09:06:06;6.78;;;2.40;;
74269;SDS011;62754;48.252;11.654;2022-11-15T09:08:31;4.05;;;2.67;;
74269;SDS011;62754;48.252;11.654;2022-11-15T09:10:57;5.20;;;2.90;;
74269;SDS011;62754;48.252;11.654;2022-11-15T09:13:23;4.20;;;2.53;;
74269;SDS011;62754;48.252;11.654;2022-11-15T09:15:49;5.72;;;4.18;;
74269;SDS011;62754;48.252;11.654;2022-11-15T09:18:14;3.72;;;2.53;;
74269;SDS011;62754;48.252;11.654;2022-11-15T09:20:40;4.07;;;2.65;;
74269;SDS011;62754;48.252;11.654;2022-11-15T09:23:06;5.47;;;2.45;;
74269;SDS011;62754;48.252;11.654;2022-11-15T09:25:32;4.45;;;2.55;;
74269;SDS011;62754;48.252;11.654;2022-11-15T09:27:57;3.70;;;2.22;;
74269;SDS011;62754;48.252;11.654;2022-11-15T09:30:24;3.20;;;2.10;;
74269;SDS011;62754;48.252;11.654;2022-11-15T09:32:51;3.95;;;2.70;;
74269;SDS011;62754;48.252;11.654;2022-11-15T09:35:17;5.07;;;2.72;;
74269;SDS011;62754;48.252;11.654;2022-11-15T09:37:43;4.78;;;2.75;;
74269;SDS011;62754;48.252;11.654;2022-11-15T09:40:09;3.47;;;2.47;;
74269;SDS011;62754;48.252;11.654;2022-11-15T09:51:00;3.50;;;2.03;;
74269;SDS011;62754;48.252;11.654;2022-11-15T09:53:31;4.85;;;2.40;;
74269;SDS011;62754;48.252;11.654;2022-11-15T09:56:15;5.40;;;4.05;;
74269;SDS011;62754;48.252;11.654;2022-11-15T10:01:17;4.95;;;2.83;;
74269;SDS011;62754;48.252;11.654;2022-11-15T10:03:59;5.70;;;4.35;;
74269;SDS011;62754;48.252;11.654;2022-11-15T10:06:25;6.40;;;3.08;;
74269;SDS011;62754;48.252;11.654;2022-11-15T10:11:24;4.15;;;2.50;;
74269;SDS011;62754;48.252;11.654;2022-11-15T10:13:53;4.75;;;2.67;;
74269;SDS011;62754;48.252;11.654;2022-11-15T10:24:31;4.43;;;2.42;;
74269;SDS011;62754;48.252;11.654;2022-11-15T10:27:00;4.05;;;2.55;;
74269;SDS011;62754;48.252;11.654;2022-11-15T10:29:26;3.75;;;2.40;;
74269;SDS011;62754;48.252;11.654;2022-11-15T10:31:52;3.75;;;2.78;;
74269;SDS011;62754;48.252;11.654;2022-11-15T10:34:21;5.40;;;2.33;;
74269;SDS011;62754;48.252;11.654;2022-11-15T10:36:58;4.93;;;2.40;;
74269;SDS011;62754;48.252;11.654;2022-11-15T10:39:25;4.55;;;2.63;;
74269;SDS011;62754;48.252;11.654;2022-11-15T10:41:51;6.82;;;2.90;;
74269;SDS011;62754;48.252;11.654;2022-11-15T10:46:44;4.38;;;2.70;;
74269;SDS011;62754;48.252;11.654;2022-11-15T10:49:16;3.45;;;2.40;;
74269;SDS011;62754;48.252;11.654;2022-11-15T10:51:50;4.85;;;2.30;;
74269;SDS011;62754;48.252;11.654;2022-11-15T10:57:00;5.28;;;3.30;;
74269;SDS011;62754;48.252;11.654;2022-11-15T10:59:33;4.53;;;2.92;;
74269;SDS011;62754;48.252;11.654;2022-11-15T11:02:02;3.53;;;2.40;;
74269;SDS011;62754;48.252;11.654;2022-11-15T11:04:27;4.15;;;2.72;;
74269;SDS011;62754;48.252;11.654;2022-11-15T11:06:54;5.15;;;3.13;;
74269;SDS011;62754;48.252;11.654;2022-11-15T11:09:31;3.50;;;2.40;;
74269;SDS011;62754;48.252;11.654;2022-11-15T11:12:03;3.95;;;2.38;;
74269;SDS011;62754;48.252;11.654;2022-11-15T11:14:31;5.30;;;2.42;;
74269;SDS011;62754;48.252;11.654;2022-11-15T11:24:44;3.85;;;2.40;;
74269;SDS011;62754;48.252;11.654;2022-11-15T11:32:40;3.95;;;2.70;;
74269;SDS011;62754;48.252;11.654;2022-11-15T11:37:46;4.20;;;2.42;;
74269;SDS011;62754;48.252;11.654;2022-11-15T11:40:31;5.28;;;3.03;;
74269;SDS011;62754;48.252;11.654;2022-11-15T11:45:55;3.85;;;2.50;;
74269;SDS011;62754;48.252;11.654;2022-11-15T11:48:43;5.10;;;2.92;;
74269;SDS011;62754;48.252;11.654;2022-11-15T11:53:42;4.57;;;2.58;;
74269;SDS011;62754;48.252;11.654;2022-11-15T11:56:55;3.22;;;2.35;;
74269;SDS011;62754;48.252;11.654;2022-11-15T11:59:05;4.22;;;2.90;;
74269;SDS011;62754;48.252;11.654;2022-11-15T12:01:41;5.18;;;2.95;;
74269;SDS011;62754;48.252;11.654;2022-11-15T12:04:29;5.28;;;3.15;;
74269;SDS011;62754;48.252;11.654;2022-11-15T12:07:17;3.58;;;2.33;;
74269;SDS011;62754;48.252;11.654;2022-11-15T12:09:52;5.10;;;3.15;;
74269;SDS011;62754;48.252;11.654;2022-11-15T12:17:35;4.60;;;3.30;;
74269;SDS011;62754;48.252;11.654;2022-11-15T12:20:13;4.78;;;3.08;;
74269;SDS011;62754;48.252;11.654;2022-11-15T12:22:47;4.40;;;3.42;;
74269;SDS011;62754;48.252;11.654;2022-11-15T12:30:54;4.57;;;3.33;;
74269;SDS011;62754;48.252;11.654;2022-11-15T12:33:28;6.88;;;4.07;;
74269;SDS011;62754;48.252;11.654;2022-11-15T12:35:58;5.70;;;3.13;;
74269;SDS011;62754;48.252;11.654;2022-11-15T12:43:53;4.28;;;2.92;;
74269;SDS011;62754;48.252;11.654;2022-11-15T13:02:30;4.03;;;3.17;;
74269;SDS011;62754;48.252;11.654;2022-11-15T13:17:39;5.15;;;3.60;;
74269;SDS011;62754;48.252;11.654;2022-11-15T13:20:29;4.63;;;3.42;;
74269;SDS011;62754;48.252;11.654;2022-11-15T13:23:29;4.70;;;3.28;;
74269;SDS011;62754;48.252;11.654;2022-11-15T13:33:47;4.35;;;3.15;;
74269;SDS011;62754;48.252;11.654;2022-11-15T13:36:18;5.07;;;3.20;;
74269;SDS011;62754;48.252;11.654;2022-11-15T13:38:54;5.10;;;3.30;;
74269;SDS011;62754;48.252;11.654;2022-11-15T13:41:23;6.63;;;4.00;;
74269;SDS011;62754;48.252;11.654;2022-11-15T13:43:52;4.78;;;2.95;;
74269;SDS011;62754;48.252;11.654;2022-11-15T13:46:20;4.78;;;3.05;;
74269;SDS011;62754;48.252;11.654;2022-11-15T13:49:00;4.30;;;3.20;;
74269;SDS011;62754;48.252;11.654;2022-11-15T13:51:47;5.57;;;3.72;;
74269;SDS011;62754;48.252;11.654;2022-11-15T13:57:24;5.53;;;3.22;;
74269;SDS011;62754;48.252;11.654;2022-11-15T13:59:52;11.55;;;4.13;;
74269;SDS011;62754;48.252;11.654;2022-11-15T14:02:26;5.47;;;3.30;;
74269;SDS011;62754;48.252;11.654;2022-11-15T14:04:58;4.45;;;2.92;;
74269;SDS011;62754;48.252;11.654;2022-11-15T14:07:28;6.05;;;3.53;;
74269;SDS011;62754;48.252;11.654;2022-11-15T14:09:54;4.38;;;3.30;;
74269;SDS011;62754;48.252;11.654;2022-11-15T14:12:53;5.65;;;3.55;;
74269;SDS011;62754;48.252;11.654;2022-11-15T14:15:39;5.50;;;3.50;;
74269;SDS011;62754;48.252;11.654;2022-11-15T14:18:04;8.43;;;4.07;;
74269;SDS011;62754;48.252;11.654;2022-11-15T14:20:32;6.38;;;3.63;;
74269;SDS011;62754;48.252;11.654;2022-11-15T14:23:00;9.27;;;4.90;;
74269;SDS011;62754;48.252;11.654;2022-11-15T14:25:32;6.93;;;3.90;;
74269;SDS011;62754;48.252;11.654;2022-11-15T14:28:07;9.23;;;5.93;;
74269;SDS011;62754;48.252;11.654;2022-11-15T14:30:36;7.72;;;4.75;;
74269;SDS011;62754;48.252;11.654;2022-11-15T14:36:04;5.60;;;3.72;;
74269;SDS011;62754;48.252;11.654;2022-11-15T14:38:37;16.65;;;5.63;;
74269;SDS011;62754;48.252;11.654;2022-11-15T14:41:03;11.77;;;6.25;;
74269;SDS011;62754;48.252;11.654;2022-11-15T14:43:29;8.60;;;4.70;;
74269;SDS011;62754;48.252;11.654;2022-11-15T14:45:55;21.30;;;8.23;;
74269;SDS011;62754;48.252;11.654;2022-11-15T14:48:21;10.65;;;5.35;;
74269;SDS011;62754;48.252;11.654;2022-11-15T14:50:47;29.95;;;9.32;;
74269;SDS011;62754;48.252;11.654;2022-11-15T14:53:14;16.42;;;6.78;;
74269;SDS011;62754;48.252;11.654;2022-11-15T14:55:41;13.82;;;6.15;;
74269;SDS011;62754;48.252;11.654;2022-11-15T14:58:07;15.75;;;7.78;;
74269;SDS011;62754;48.252;11.654;2022-11-15T15:00:34;34.35;;;11.43;;
74269;SDS011;62754;48.252;11.654;2022-11-15T15:03:01;23.80;;;8.27;;
74269;SDS011;62754;48.252;11.654;2022-11-15T15:05:35;38.03;;;11.65;;
74269;SDS011;62754;48.252;11.654;2022-11-15T15:08:02;22.52;;;8.32;;
74269;SDS011;62754;48.252;11.654;2022-11-15T15:10:32;14.85;;;6.85;;
74269;SDS011;62754;48.252;11.654;2022-11-15T15:13:03;11.25;;;5.10;;
74269;SDS011;62754;48.252;11.654;2022-11-15T15:15:33;19.27;;;6.38;;
74269;SDS011;62754;48.252;11.654;2022-11-15T15:18:01;24.13;;;8.02;;
74269;SDS011;62754;48.252;11.654;2022-11-15T15:20:28;12.32;;;5.13;;
74269;SDS011;62754;48.252;11.654;2022-11-15T15:22:54;10.68;;;5.35;;
74269;SDS011;62754;48.252;11.654;2022-11-15T15:25:30;9.23;;;5.20;;
74269;SDS011;62754;48.252;11.654;2022-11-15T15:28:00;8.32;;;5.03;;
74269;SDS011;62754;48.252;11.654;2022-11-15T15:30:28;10.25;;;5.00;;
74269;SDS011;62754;48.252;11.654;2022-11-15T15:32:55;9.18;;;5.22;;
74269;SDS011;62754;48.252;11.654;2022-11-15T15:35:21;11.35;;;6.47;;
74269;SDS011;62754;48.252;11.654;2022-11-15T15:37:48;15.38;;;7.93;;
74269;SDS011;62754;48.252;11.654;2022-11-15T15:42:41;10.02;;;6.22;;
74269;SDS011;62754;48.252;11.654;2022-11-15T15:45:07;11.57;;;6.68;;
74269;SDS011;62754;48.252;11.654;2022-11-15T15:47:34;12.40;;;6.25;;
74269;SDS011;62754;48.252;11.654;2022-11-15T15:50:00;11.18;;;5.63;;
74269;SDS011;62754;48.252;11.654;2022-11-15T15:52:25;9.77;;;5.63;;
74269;SDS011;62754;48.252;11.654;2022-11-15T15:54:51;9.95;;;5.18;;
74269;SDS011;62754;48.252;11.654;2022-11-15T15:57:17;9.88;;;6.10;;
74269;SDS011;62754;48.252;11.654;2022-11-15T15:59:42;9.80;;;5.40;;
74269;SDS011;62754;48.252;11.654;2022-11-15T16:02:09;10.27;;;5.53;;
74269;SDS011;62754;48.252;11.654;2022-11-15T16:04:37;8.70;;;5.20;;
74269;SDS011;62754;48.252;11.654;2022-11-15T16:07:03;11.55;;;7.18;;
74269;SDS011;62754;48.252;11.654;2022-11-15T16:09:28;13.30;;;6.72;;
74269;SDS011;62754;48.252;11.654;2022-11-15T16:11:54;7.80;;;5.05;;
74269;SDS011;62754;48.252;11.654;2022-11-15T16:14:20;10.38;;;5.70;;
74269;SDS011;62754;48.252;11.654;2022-11-15T16:16:46;11.13;;;5.65;;
74269;SDS011;62754;48.252;11.654;2022-11-15T16:19:11;14.00;;;6.85;;
74269;SDS011;62754;48.252;11.654;2022-11-15T16:21:37;9.43;;;6.22;;
74269;SDS011;62754;48.252;11.654;2022-11-15T16:24:03;9.40;;;6.20;;
74269;SDS011;62754;48.252;11.654;2022-11-15T16:26:29;10.63;;;6.03;;
74269;SDS011;62754;48.252;11.654;2022-11-15T16:28:55;11.38;;;6.40;;
74269;SDS011;62754;48.252;11.654;2022-11-15T16:31:21;10.98;;;6.25;;
74269;SDS011;62754;48.252;11.654;2022-11-15T16:33:46;9.15;;;5.82;;
74269;SDS011;62754;48.252;11.654;2022-11-15T16:36:24;9.43;;;5.95;;
74269;SDS011;62754;48.252;11.654;2022-11-15T16:38:51;10.40;;;5.57;;
74269;SDS011;62754;48.252;11.654;2022-11-15T16:41:17;11.13;;;5.57;;
74269;SDS011;62754;48.252;11.654;2022-11-15T16:43:44;9.68;;;5.65;;
74269;SDS011;62754;48.252;11.654;2022-11-15T16:48:47;9.45;;;5.70;;
74269;SDS011;62754;48.252;11.654;2022-11-15T16:51:13;9.10;;;5.50;;
74269;SDS011;62754;48.252;11.654;2022-11-15T16:53:39;10.15;;;5.80;;
74269;SDS011;62754;48.252;11.654;2022-11-15T16:56:17;9.45;;;6.30;;
74269;SDS011;62754;48.252;11.654;2022-11-15T16:58:46;15.23;;;6.45;;
74269;SDS011;62754;48.252;11.654;2022-11-15T17:01:21;13.48;;;6.47;;
74269;SDS011;62754;48.252;11.654;2022-11-15T17:03:49;12.80;;;7.68;;
74269;SDS011;62754;48.252;11.654;2022-11-15T17:06:15;12.88;;;7.32;;
74269;SDS011;62754;48.252;11.654;2022-11-15T17:13:33;19.17;;;9.40;;
74269;SDS011;62754;48.252;11.654;2022-11-15T17:16:05;13.85;;;8.48;;
74269;SDS011;62754;48.252;11.654;2022-11-15T17:18:32;11.57;;;7.97;;
74269;SDS011;62754;48.252;11.654;2022-11-15T17:21:02;12.23;;;7.72;;